sensor_id;sensor_type;location;lat;lon;timestamp;P1;durP1;ratioP1;P2;durP2;ratioP2
7444;SDS011;3764;48.126;11.594;2022-08-03T00:01:05;4.53;;;2.77;;
7444;SDS011;3764;48.126;11.594;2022-08-03T00:03:33;3.10;;;2.47;;
7444;SDS011;3764;48.126;11.594;2022-08-03T00:06:01;3.43;;;2.40;;
7444;SDS011;3764;48.126;11.594;2022-08-03T00:08:28;2.60;;;2.40;;
7444;SDS011;3764;48.126;11.594;2022-08-03T00:10:55;3.27;;;2.30;;
7444;SDS011;3764;48.126;11.594;2022-08-03T00:13:23;3.87;;;2.23;;
7444;SDS011;3764;48.126;11.594;2022-08-03T00:15:50;3.00;;;2.10;;
7444;SDS011;3764;48.126;11.594;2022-08-03T00:18:18;2.70;;;2.10;;
7444;SDS011;3764;48.126;11.594;2022-08-03T00:20:46;3.87;;;2.30;;
7444;SDS011;3764;48.126;11.594;2022-08-03T00:23:13;4.90;;;2.83;;
7444;SDS011;3764;48.126;11.594;2022-08-03T00:25:41;3.17;;;2.40;;
7444;SDS011;3764;48.126;11.594;2022-08-03T00:28:08;3.33;;;2.27;;
7444;SDS011;3764;48.126;11.594;2022-08-03T00:30:35;2.20;;;1.97;;
7444;SDS011;3764;48.126;11.594;2022-08-03T00:33:02;4.20;;;2.40;;
7444;SDS011;3764;48.126;11.594;2022-08-03T00:35:29;3.57;;;2.50;;
7444;SDS011;3764;48.126;11.594;2022-08-03T00:37:58;2.37;;;2.17;;
7444;SDS011;3764;48.126;11.594;2022-08-03T00:40:26;3.50;;;2.17;;
7444;SDS011;3764;48.126;11.594;2022-08-03T00:42:54;2.57;;;2.30;;
7444;SDS011;3764;48.126;11.594;2022-08-03T00:45:23;3.20;;;2.37;;
7444;SDS011;3764;48.126;11.594;2022-08-03T00:47:51;3.67;;;2.23;;
7444;SDS011;3764;48.126;11.594;2022-08-03T00:50:19;2.93;;;2.20;;
7444;SDS011;3764;48.126;11.594;2022-08-03T00:52:48;2.77;;;2.37;;
7444;SDS011;3764;48.126;11.594;2022-08-03T00:55:18;3.67;;;2.07;;
7444;SDS011;3764;48.126;11.594;2022-08-03T00:57:45;4.13;;;1.93;;
7444;SDS011;3764;48.126;11.594;2022-08-03T01:00:13;2.87;;;2.57;;
7444;SDS011;3764;48.126;11.594;2022-08-03T01:02:42;2.90;;;2.27;;
7444;SDS011;3764;48.126;11.594;2022-08-03T01:05:09;2.90;;;2.40;;
7444;SDS011;3764;48.126;11.594;2022-08-03T01:07:40;2.73;;;2.43;;
7444;SDS011;3764;48.126;11.594;2022-08-03T01:10:22;3.30;;;2.27;;
7444;SDS011;3764;48.126;11.594;2022-08-03T01:12:58;2.90;;;2.23;;
7444;SDS011;3764;48.126;11.594;2022-08-03T01:15:33;3.80;;;2.50;;
7444;SDS011;3764;48.126;11.594;2022-08-03T01:18:08;2.90;;;2.20;;
7444;SDS011;3764;48.126;11.594;2022-08-03T01:20:42;2.30;;;2.00;;
7444;SDS011;3764;48.126;11.594;2022-08-03T01:23:17;2.17;;;1.93;;
7444;SDS011;3764;48.126;11.594;2022-08-03T01:26:04;3.50;;;2.30;;
7444;SDS011;3764;48.126;11.594;2022-08-03T01:31:31;2.93;;;2.07;;
7444;SDS011;3764;48.126;11.594;2022-08-03T01:34:05;3.47;;;2.17;;
7444;SDS011;3764;48.126;11.594;2022-08-03T01:36:37;3.10;;;2.20;;
7444;SDS011;3764;48.126;11.594;2022-08-03T01:39:08;2.87;;;2.23;;
7444;SDS011;3764;48.126;11.594;2022-08-03T01:41:39;3.40;;;2.00;;
7444;SDS011;3764;48.126;11.594;2022-08-03T01:44:11;1.90;;;1.67;;
7444;SDS011;3764;48.126;11.594;2022-08-03T01:46:40;2.63;;;2.27;;
7444;SDS011;3764;48.126;11.594;2022-08-03T01:49:09;3.17;;;2.13;;
7444;SDS011;3764;48.126;11.594;2022-08-03T01:51:40;3.30;;;2.23;;
7444;SDS011;3764;48.126;11.594;2022-08-03T01:54:09;2.83;;;2.00;;
7444;SDS011;3764;48.126;11.594;2022-08-03T01:56:38;3.70;;;2.03;;
7444;SDS011;3764;48.126;11.594;2022-08-03T01:59:06;2.83;;;1.70;;
7444;SDS011;3764;48.126;11.594;2022-08-03T02:01:35;2.60;;;2.13;;
7444;SDS011;3764;48.126;11.594;2022-08-03T02:04:05;2.30;;;1.87;;
7444;SDS011;3764;48.126;11.594;2022-08-03T02:06:34;3.47;;;2.40;;
7444;SDS011;3764;48.126;11.594;2022-08-03T02:09:04;2.93;;;2.10;;
7444;SDS011;3764;48.126;11.594;2022-08-03T02:11:32;1.97;;;1.77;;
7444;SDS011;3764;48.126;11.594;2022-08-03T02:14:01;3.20;;;2.23;;
7444;SDS011;3764;48.126;11.594;2022-08-03T02:16:31;4.17;;;2.17;;
7444;SDS011;3764;48.126;11.594;2022-08-03T02:19:00;2.43;;;1.90;;
7444;SDS011;3764;48.126;11.594;2022-08-03T02:21:34;2.17;;;1.97;;
7444;SDS011;3764;48.126;11.594;2022-08-03T02:24:02;2.47;;;1.90;;
7444;SDS011;3764;48.126;11.594;2022-08-03T02:26:30;2.23;;;1.73;;
7444;SDS011;3764;48.126;11.594;2022-08-03T02:29:09;2.60;;;2.40;;
7444;SDS011;3764;48.126;11.594;2022-08-03T02:31:40;3.07;;;2.27;;
7444;SDS011;3764;48.126;11.594;2022-08-03T02:34:11;2.03;;;1.83;;
7444;SDS011;3764;48.126;11.594;2022-08-03T02:36:41;2.17;;;1.97;;
7444;SDS011;3764;48.126;11.594;2022-08-03T02:39:12;3.40;;;1.90;;
7444;SDS011;3764;48.126;11.594;2022-08-03T02:41:45;2.30;;;2.10;;
7444;SDS011;3764;48.126;11.594;2022-08-03T02:44:16;2.23;;;1.93;;
7444;SDS011;3764;48.126;11.594;2022-08-03T02:46:48;2.50;;;1.87;;
7444;SDS011;3764;48.126;11.594;2022-08-03T02:49:19;2.27;;;2.03;;
7444;SDS011;3764;48.126;11.594;2022-08-03T02:51:48;1.80;;;1.40;;
7444;SDS011;3764;48.126;11.594;2022-08-03T02:54:18;4.23;;;1.90;;
7444;SDS011;3764;48.126;11.594;2022-08-03T02:56:48;1.70;;;1.53;;
7444;SDS011;3764;48.126;11.594;2022-08-03T02:59:16;4.50;;;2.03;;
7444;SDS011;3764;48.126;11.594;2022-08-03T03:01:45;2.87;;;1.73;;
7444;SDS011;3764;48.126;11.594;2022-08-03T03:04:12;2.37;;;2.07;;
7444;SDS011;3764;48.126;11.594;2022-08-03T03:06:40;2.13;;;1.93;;
7444;SDS011;3764;48.126;11.594;2022-08-03T03:09:09;4.43;;;1.77;;
7444;SDS011;3764;48.126;11.594;2022-08-03T03:11:37;2.80;;;2.20;;
7444;SDS011;3764;48.126;11.594;2022-08-03T03:14:06;2.77;;;2.10;;
7444;SDS011;3764;48.126;11.594;2022-08-03T03:16:36;3.30;;;2.37;;
7444;SDS011;3764;48.126;11.594;2022-08-03T03:19:04;2.30;;;2.10;;
7444;SDS011;3764;48.126;11.594;2022-08-03T03:21:33;2.13;;;1.77;;
7444;SDS011;3764;48.126;11.594;2022-08-03T03:24:02;2.20;;;1.80;;
7444;SDS011;3764;48.126;11.594;2022-08-03T03:26:33;6.53;;;2.17;;
7444;SDS011;3764;48.126;11.594;2022-08-03T03:29:01;2.83;;;2.00;;
7444;SDS011;3764;48.126;11.594;2022-08-03T03:31:28;2.27;;;1.80;;
7444;SDS011;3764;48.126;11.594;2022-08-03T03:33:56;1.80;;;1.70;;
7444;SDS011;3764;48.126;11.594;2022-08-03T03:36:24;3.73;;;1.83;;
7444;SDS011;3764;48.126;11.594;2022-08-03T03:38:51;2.47;;;1.90;;
7444;SDS011;3764;48.126;11.594;2022-08-03T03:41:18;2.83;;;2.40;;
7444;SDS011;3764;48.126;11.594;2022-08-03T03:43:47;2.23;;;1.93;;
7444;SDS011;3764;48.126;11.594;2022-08-03T03:46:15;2.70;;;2.30;;
7444;SDS011;3764;48.126;11.594;2022-08-03T03:48:43;3.47;;;3.17;;
7444;SDS011;3764;48.126;11.594;2022-08-03T03:51:10;3.73;;;2.63;;
7444;SDS011;3764;48.126;11.594;2022-08-03T03:53:38;5.10;;;2.50;;
7444;SDS011;3764;48.126;11.594;2022-08-03T03:56:05;4.23;;;2.03;;
7444;SDS011;3764;48.126;11.594;2022-08-03T03:58:32;2.57;;;2.07;;
7444;SDS011;3764;48.126;11.594;2022-08-03T04:01:00;3.20;;;2.60;;
7444;SDS011;3764;48.126;11.594;2022-08-03T04:03:27;2.33;;;2.07;;
7444;SDS011;3764;48.126;11.594;2022-08-03T04:05:54;2.83;;;2.10;;
7444;SDS011;3764;48.126;11.594;2022-08-03T04:08:39;2.87;;;2.40;;
7444;SDS011;3764;48.126;11.594;2022-08-03T04:11:25;3.25;;;2.40;;
7444;SDS011;3764;48.126;11.594;2022-08-03T04:13:54;3.03;;;2.40;;
7444;SDS011;3764;48.126;11.594;2022-08-03T04:16:26;7.30;;;2.43;;
7444;SDS011;3764;48.126;11.594;2022-08-03T04:18:56;2.30;;;1.80;;
7444;SDS011;3764;48.126;11.594;2022-08-03T04:21:27;3.10;;;2.10;;
7444;SDS011;3764;48.126;11.594;2022-08-03T04:23:57;2.93;;;1.83;;
7444;SDS011;3764;48.126;11.594;2022-08-03T04:26:28;2.63;;;1.97;;
7444;SDS011;3764;48.126;11.594;2022-08-03T04:28:58;2.87;;;2.53;;
7444;SDS011;3764;48.126;11.594;2022-08-03T04:31:27;2.60;;;2.30;;
7444;SDS011;3764;48.126;11.594;2022-08-03T04:33:55;3.13;;;1.97;;
7444;SDS011;3764;48.126;11.594;2022-08-03T04:36:24;2.90;;;2.07;;
7444;SDS011;3764;48.126;11.594;2022-08-03T04:38:54;2.33;;;2.03;;
7444;SDS011;3764;48.126;11.594;2022-08-03T04:41:25;3.30;;;1.77;;
7444;SDS011;3764;48.126;11.594;2022-08-03T04:43:53;3.10;;;2.20;;
7444;SDS011;3764;48.126;11.594;2022-08-03T04:46:22;3.23;;;2.20;;
7444;SDS011;3764;48.126;11.594;2022-08-03T04:48:53;5.83;;;2.47;;
7444;SDS011;3764;48.126;11.594;2022-08-03T04:51:22;4.60;;;2.30;;
7444;SDS011;3764;48.126;11.594;2022-08-03T04:53:50;2.03;;;1.83;;
7444;SDS011;3764;48.126;11.594;2022-08-03T04:56:17;2.50;;;2.30;;
7444;SDS011;3764;48.126;11.594;2022-08-03T04:58:44;4.43;;;2.40;;
7444;SDS011;3764;48.126;11.594;2022-08-03T05:01:11;2.50;;;2.10;;
7444;SDS011;3764;48.126;11.594;2022-08-03T05:03:38;2.30;;;2.10;;
7444;SDS011;3764;48.126;11.594;2022-08-03T05:06:07;3.07;;;2.20;;
7444;SDS011;3764;48.126;11.594;2022-08-03T05:08:34;3.73;;;2.23;;
7444;SDS011;3764;48.126;11.594;2022-08-03T05:11:01;3.60;;;2.30;;
7444;SDS011;3764;48.126;11.594;2022-08-03T05:13:28;2.53;;;1.97;;
7444;SDS011;3764;48.126;11.594;2022-08-03T05:15:55;3.40;;;2.27;;
7444;SDS011;3764;48.126;11.594;2022-08-03T05:18:22;3.30;;;2.43;;
7444;SDS011;3764;48.126;11.594;2022-08-03T05:20:49;3.00;;;2.00;;
7444;SDS011;3764;48.126;11.594;2022-08-03T05:23:18;2.90;;;2.40;;
7444;SDS011;3764;48.126;11.594;2022-08-03T05:25:45;2.60;;;2.40;;
7444;SDS011;3764;48.126;11.594;2022-08-03T05:28:12;5.37;;;2.00;;
7444;SDS011;3764;48.126;11.594;2022-08-03T05:30:39;4.97;;;3.37;;
7444;SDS011;3764;48.126;11.594;2022-08-03T05:33:06;2.83;;;2.30;;
7444;SDS011;3764;48.126;11.594;2022-08-03T05:35:34;3.03;;;2.30;;
7444;SDS011;3764;48.126;11.594;2022-08-03T05:38:03;3.30;;;2.30;;
7444;SDS011;3764;48.126;11.594;2022-08-03T05:40:32;2.13;;;1.90;;
7444;SDS011;3764;48.126;11.594;2022-08-03T05:42:59;3.97;;;2.80;;
7444;SDS011;3764;48.126;11.594;2022-08-03T05:45:27;3.23;;;2.33;;
7444;SDS011;3764;48.126;11.594;2022-08-03T05:47:54;2.83;;;2.20;;
7444;SDS011;3764;48.126;11.594;2022-08-03T05:50:22;3.10;;;2.00;;
7444;SDS011;3764;48.126;11.594;2022-08-03T05:52:49;4.53;;;2.50;;
7444;SDS011;3764;48.126;11.594;2022-08-03T05:55:16;4.63;;;2.03;;
7444;SDS011;3764;48.126;11.594;2022-08-03T05:57:46;3.57;;;2.90;;
7444;SDS011;3764;48.126;11.594;2022-08-03T06:00:13;2.67;;;2.00;;
7444;SDS011;3764;48.126;11.594;2022-08-03T06:02:41;2.30;;;1.90;;
7444;SDS011;3764;48.126;11.594;2022-08-03T06:05:09;3.27;;;2.57;;
7444;SDS011;3764;48.126;11.594;2022-08-03T06:07:36;4.93;;;2.40;;
7444;SDS011;3764;48.126;11.594;2022-08-03T06:10:03;3.23;;;2.20;;
7444;SDS011;3764;48.126;11.594;2022-08-03T06:12:31;2.10;;;1.90;;
7444;SDS011;3764;48.126;11.594;2022-08-03T06:15:02;3.33;;;2.10;;
7444;SDS011;3764;48.126;11.594;2022-08-03T06:17:29;3.20;;;2.63;;
7444;SDS011;3764;48.126;11.594;2022-08-03T06:19:56;6.20;;;2.30;;
7444;SDS011;3764;48.126;11.594;2022-08-03T06:22:23;5.70;;;2.63;;
7444;SDS011;3764;48.126;11.594;2022-08-03T06:24:51;4.47;;;3.13;;
7444;SDS011;3764;48.126;11.594;2022-08-03T06:27:18;10.13;;;8.00;;
7444;SDS011;3764;48.126;11.594;2022-08-03T06:29:45;7.37;;;6.00;;
7444;SDS011;3764;48.126;11.594;2022-08-03T06:32:13;5.93;;;4.77;;
7444;SDS011;3764;48.126;11.594;2022-08-03T06:34:40;6.10;;;3.70;;
7444;SDS011;3764;48.126;11.594;2022-08-03T06:37:07;3.63;;;3.10;;
7444;SDS011;3764;48.126;11.594;2022-08-03T06:39:36;4.00;;;3.20;;
7444;SDS011;3764;48.126;11.594;2022-08-03T06:42:03;5.53;;;3.10;;
7444;SDS011;3764;48.126;11.594;2022-08-03T06:44:30;9.23;;;2.83;;
7444;SDS011;3764;48.126;11.594;2022-08-03T06:46:57;4.50;;;2.97;;
7444;SDS011;3764;48.126;11.594;2022-08-03T06:49:25;6.70;;;2.87;;
7444;SDS011;3764;48.126;11.594;2022-08-03T06:51:53;3.53;;;2.87;;
7444;SDS011;3764;48.126;11.594;2022-08-03T06:54:20;5.90;;;3.00;;
7444;SDS011;3764;48.126;11.594;2022-08-03T06:56:48;7.10;;;2.90;;
7444;SDS011;3764;48.126;11.594;2022-08-03T06:59:16;2.93;;;2.63;;
7444;SDS011;3764;48.126;11.594;2022-08-03T07:01:43;6.70;;;3.00;;
7444;SDS011;3764;48.126;11.594;2022-08-03T07:04:10;3.50;;;2.60;;
7444;SDS011;3764;48.126;11.594;2022-08-03T07:06:39;6.20;;;2.70;;
7444;SDS011;3764;48.126;11.594;2022-08-03T07:09:06;5.30;;;2.37;;
7444;SDS011;3764;48.126;11.594;2022-08-03T07:11:33;4.10;;;2.17;;
7444;SDS011;3764;48.126;11.594;2022-08-03T07:14:00;5.97;;;3.33;;
7444;SDS011;3764;48.126;11.594;2022-08-03T07:16:27;3.00;;;2.60;;
7444;SDS011;3764;48.126;11.594;2022-08-03T07:18:54;4.13;;;2.80;;
7444;SDS011;3764;48.126;11.594;2022-08-03T07:21:21;4.57;;;2.40;;
7444;SDS011;3764;48.126;11.594;2022-08-03T07:23:50;5.60;;;2.20;;
7444;SDS011;3764;48.126;11.594;2022-08-03T07:26:17;3.40;;;2.37;;
7444;SDS011;3764;48.126;11.594;2022-08-03T07:28:44;4.10;;;2.63;;
7444;SDS011;3764;48.126;11.594;2022-08-03T07:31:11;3.67;;;3.17;;
7444;SDS011;3764;48.126;11.594;2022-08-03T07:33:38;6.10;;;2.70;;
7444;SDS011;3764;48.126;11.594;2022-08-03T07:36:05;3.70;;;2.80;;
7444;SDS011;3764;48.126;11.594;2022-08-03T07:38:33;3.80;;;2.60;;
7444;SDS011;3764;48.126;11.594;2022-08-03T07:41:02;3.20;;;2.90;;
7444;SDS011;3764;48.126;11.594;2022-08-03T07:43:29;7.07;;;2.87;;
7444;SDS011;3764;48.126;11.594;2022-08-03T07:45:56;3.63;;;2.33;;
7444;SDS011;3764;48.126;11.594;2022-08-03T07:48:24;4.00;;;2.60;;
7444;SDS011;3764;48.126;11.594;2022-08-03T07:50:51;3.07;;;2.33;;
7444;SDS011;3764;48.126;11.594;2022-08-03T07:53:18;3.10;;;2.67;;
7444;SDS011;3764;48.126;11.594;2022-08-03T07:55:45;4.80;;;4.00;;
7444;SDS011;3764;48.126;11.594;2022-08-03T07:58:14;3.47;;;2.27;;
7444;SDS011;3764;48.126;11.594;2022-08-03T08:00:42;7.90;;;3.13;;
7444;SDS011;3764;48.126;11.594;2022-08-03T08:03:10;3.53;;;2.17;;
7444;SDS011;3764;48.126;11.594;2022-08-03T08:05:38;3.20;;;2.67;;
7444;SDS011;3764;48.126;11.594;2022-08-03T08:08:05;4.10;;;3.23;;
7444;SDS011;3764;48.126;11.594;2022-08-03T08:10:32;3.70;;;2.70;;
7444;SDS011;3764;48.126;11.594;2022-08-03T08:13:00;4.43;;;2.37;;
7444;SDS011;3764;48.126;11.594;2022-08-03T08:15:29;2.90;;;1.90;;
7444;SDS011;3764;48.126;11.594;2022-08-03T08:17:57;2.53;;;2.33;;
7444;SDS011;3764;48.126;11.594;2022-08-03T08:20:27;3.50;;;2.00;;
7444;SDS011;3764;48.126;11.594;2022-08-03T08:22:56;3.50;;;2.30;;
7444;SDS011;3764;48.126;11.594;2022-08-03T08:25:24;2.37;;;2.13;;
7444;SDS011;3764;48.126;11.594;2022-08-03T08:27:51;3.60;;;2.40;;
7444;SDS011;3764;48.126;11.594;2022-08-03T08:30:19;2.80;;;2.33;;
7444;SDS011;3764;48.126;11.594;2022-08-03T08:32:49;2.53;;;2.13;;
7444;SDS011;3764;48.126;11.594;2022-08-03T08:35:16;2.07;;;1.70;;
7444;SDS011;3764;48.126;11.594;2022-08-03T08:37:44;2.77;;;2.47;;
7444;SDS011;3764;48.126;11.594;2022-08-03T08:40:11;2.50;;;1.97;;
7444;SDS011;3764;48.126;11.594;2022-08-03T08:42:38;3.10;;;2.00;;
7444;SDS011;3764;48.126;11.594;2022-08-03T08:45:07;2.97;;;2.10;;
7444;SDS011;3764;48.126;11.594;2022-08-03T08:47:36;2.80;;;2.23;;
7444;SDS011;3764;48.126;11.594;2022-08-03T08:50:07;3.40;;;1.70;;
7444;SDS011;3764;48.126;11.594;2022-08-03T08:52:35;2.20;;;1.60;;
7444;SDS011;3764;48.126;11.594;2022-08-03T08:55:05;4.93;;;2.30;;
7444;SDS011;3764;48.126;11.594;2022-08-03T08:57:35;4.70;;;1.60;;
7444;SDS011;3764;48.126;11.594;2022-08-03T09:00:04;2.33;;;1.50;;
7444;SDS011;3764;48.126;11.594;2022-08-03T09:02:33;2.80;;;1.93;;
7444;SDS011;3764;48.126;11.594;2022-08-03T09:05:01;1.80;;;1.57;;
7444;SDS011;3764;48.126;11.594;2022-08-03T09:07:30;3.30;;;1.63;;
7444;SDS011;3764;48.126;11.594;2022-08-03T09:09:57;2.50;;;2.00;;
7444;SDS011;3764;48.126;11.594;2022-08-03T09:12:24;3.10;;;1.60;;
7444;SDS011;3764;48.126;11.594;2022-08-03T09:14:51;4.17;;;3.50;;
7444;SDS011;3764;48.126;11.594;2022-08-03T09:17:20;3.70;;;1.97;;
7444;SDS011;3764;48.126;11.594;2022-08-03T09:20:02;2.43;;;1.73;;
7444;SDS011;3764;48.126;11.594;2022-08-03T09:22:34;2.57;;;1.87;;
7444;SDS011;3764;48.126;11.594;2022-08-03T09:25:02;3.10;;;1.80;;
7444;SDS011;3764;48.126;11.594;2022-08-03T09:27:40;2.13;;;1.80;;
7444;SDS011;3764;48.126;11.594;2022-08-03T09:30:11;2.87;;;2.03;;
7444;SDS011;3764;48.126;11.594;2022-08-03T09:32:40;4.20;;;1.83;;
7444;SDS011;3764;48.126;11.594;2022-08-03T09:35:09;1.77;;;1.60;;
7444;SDS011;3764;48.126;11.594;2022-08-03T09:37:38;1.60;;;1.30;;
7444;SDS011;3764;48.126;11.594;2022-08-03T09:40:05;3.33;;;1.90;;
7444;SDS011;3764;48.126;11.594;2022-08-03T09:42:33;3.63;;;1.70;;
7444;SDS011;3764;48.126;11.594;2022-08-03T09:45:02;2.50;;;1.60;;
7444;SDS011;3764;48.126;11.594;2022-08-03T09:47:31;1.80;;;1.30;;
7444;SDS011;3764;48.126;11.594;2022-08-03T09:50:01;2.30;;;1.47;;
7444;SDS011;3764;48.126;11.594;2022-08-03T09:52:30;3.90;;;2.70;;
7444;SDS011;3764;48.126;11.594;2022-08-03T09:55:00;2.37;;;1.63;;
7444;SDS011;3764;48.126;11.594;2022-08-03T09:57:28;1.80;;;1.57;;
7444;SDS011;3764;48.126;11.594;2022-08-03T10:00:05;2.17;;;1.77;;
7444;SDS011;3764;48.126;11.594;2022-08-03T10:02:36;1.90;;;1.70;;
7444;SDS011;3764;48.126;11.594;2022-08-03T10:05:04;2.80;;;1.83;;
7444;SDS011;3764;48.126;11.594;2022-08-03T10:07:40;1.90;;;1.50;;
7444;SDS011;3764;48.126;11.594;2022-08-03T10:10:11;2.03;;;1.63;;
7444;SDS011;3764;48.126;11.594;2022-08-03T10:12:39;2.20;;;1.60;;
7444;SDS011;3764;48.126;11.594;2022-08-03T10:15:07;1.90;;;1.70;;
7444;SDS011;3764;48.126;11.594;2022-08-03T10:17:35;1.90;;;1.50;;
7444;SDS011;3764;48.126;11.594;2022-08-03T10:20:04;2.50;;;1.70;;
7444;SDS011;3764;48.126;11.594;2022-08-03T10:22:33;2.30;;;1.63;;
7444;SDS011;3764;48.126;11.594;2022-08-03T10:25:08;1.80;;;1.50;;
7444;SDS011;3764;48.126;11.594;2022-08-03T10:27:40;2.33;;;1.77;;
7444;SDS011;3764;48.126;11.594;2022-08-03T10:30:11;2.20;;;1.70;;
7444;SDS011;3764;48.126;11.594;2022-08-03T10:32:40;2.77;;;1.87;;
7444;SDS011;3764;48.126;11.594;2022-08-03T10:35:11;3.23;;;1.77;;
7444;SDS011;3764;48.126;11.594;2022-08-03T10:37:40;2.20;;;1.60;;
7444;SDS011;3764;48.126;11.594;2022-08-03T10:40:11;3.40;;;2.07;;
7444;SDS011;3764;48.126;11.594;2022-08-03T10:42:42;2.23;;;1.80;;
7444;SDS011;3764;48.126;11.594;2022-08-03T10:45:12;2.00;;;1.70;;
7444;SDS011;3764;48.126;11.594;2022-08-03T10:47:43;2.50;;;1.80;;
7444;SDS011;3764;48.126;11.594;2022-08-03T10:50:11;1.40;;;1.30;;
7444;SDS011;3764;48.126;11.594;2022-08-03T10:52:52;2.90;;;1.67;;
7444;SDS011;3764;48.126;11.594;2022-08-03T10:55:30;2.23;;;1.47;;
7444;SDS011;3764;48.126;11.594;2022-08-03T11:01:15;3.30;;;1.60;;
7444;SDS011;3764;48.126;11.594;2022-08-03T11:06:54;1.70;;;1.30;;
7444;SDS011;3764;48.126;11.594;2022-08-03T11:09:46;2.70;;;2.00;;
7444;SDS011;3764;48.126;11.594;2022-08-03T11:12:22;2.63;;;1.87;;
7444;SDS011;3764;48.126;11.594;2022-08-03T11:14:53;2.17;;;1.80;;
7444;SDS011;3764;48.126;11.594;2022-08-03T11:17:21;2.23;;;1.63;;
7444;SDS011;3764;48.126;11.594;2022-08-03T11:19:49;1.93;;;1.60;;
7444;SDS011;3764;48.126;11.594;2022-08-03T11:22:18;2.87;;;1.67;;
7444;SDS011;3764;48.126;11.594;2022-08-03T11:25:01;1.77;;;1.33;;
7444;SDS011;3764;48.126;11.594;2022-08-03T11:27:29;2.73;;;1.77;;
7444;SDS011;3764;48.126;11.594;2022-08-03T11:29:59;2.07;;;1.60;;
7444;SDS011;3764;48.126;11.594;2022-08-03T11:35:21;1.80;;;1.50;;
7444;SDS011;3764;48.126;11.594;2022-08-03T11:40:38;2.20;;;1.80;;
7444;SDS011;3764;48.126;11.594;2022-08-03T11:43:08;1.60;;;1.13;;
7444;SDS011;3764;48.126;11.594;2022-08-03T11:46:01;2.00;;;1.50;;
7444;SDS011;3764;48.126;11.594;2022-08-03T11:48:32;2.30;;;1.53;;
7444;SDS011;3764;48.126;11.594;2022-08-03T11:51:02;2.73;;;1.50;;
7444;SDS011;3764;48.126;11.594;2022-08-03T11:53:31;2.17;;;1.73;;
7444;SDS011;3764;48.126;11.594;2022-08-03T11:55:59;2.17;;;1.70;;
7444;SDS011;3764;48.126;11.594;2022-08-03T11:58:27;2.67;;;2.00;;
7444;SDS011;3764;48.126;11.594;2022-08-03T12:01:03;1.67;;;1.43;;
7444;SDS011;3764;48.126;11.594;2022-08-03T12:03:32;1.70;;;1.30;;
7444;SDS011;3764;48.126;11.594;2022-08-03T12:06:00;4.40;;;1.57;;
7444;SDS011;3764;48.126;11.594;2022-08-03T12:08:29;1.63;;;1.30;;
7444;SDS011;3764;48.126;11.594;2022-08-03T12:10:58;2.40;;;2.03;;
7444;SDS011;3764;48.126;11.594;2022-08-03T12:13:34;2.60;;;1.57;;
7444;SDS011;3764;48.126;11.594;2022-08-03T12:16:04;2.00;;;1.80;;
7444;SDS011;3764;48.126;11.594;2022-08-03T12:18:32;1.80;;;1.30;;
7444;SDS011;3764;48.126;11.594;2022-08-03T12:21:03;2.00;;;1.50;;
7444;SDS011;3764;48.126;11.594;2022-08-03T12:23:31;2.43;;;1.47;;
7444;SDS011;3764;48.126;11.594;2022-08-03T12:26:02;2.90;;;2.10;;
7444;SDS011;3764;48.126;11.594;2022-08-03T12:28:30;1.80;;;1.70;;
7444;SDS011;3764;48.126;11.594;2022-08-03T12:31:00;2.93;;;1.60;;
7444;SDS011;3764;48.126;11.594;2022-08-03T12:33:31;1.90;;;1.50;;
7444;SDS011;3764;48.126;11.594;2022-08-03T12:36:19;2.17;;;1.30;;
7444;SDS011;3764;48.126;11.594;2022-08-03T12:38:52;1.87;;;1.40;;
7444;SDS011;3764;48.126;11.594;2022-08-03T12:41:26;1.40;;;1.20;;
7444;SDS011;3764;48.126;11.594;2022-08-03T12:43:54;1.53;;;1.30;;
7444;SDS011;3764;48.126;11.594;2022-08-03T12:46:22;3.27;;;1.80;;
7444;SDS011;3764;48.126;11.594;2022-08-03T12:54:25;1.90;;;1.70;;
7444;SDS011;3764;48.126;11.594;2022-08-03T12:56:56;2.20;;;1.43;;
7444;SDS011;3764;48.126;11.594;2022-08-03T12:59:24;2.07;;;1.87;;
7444;SDS011;3764;48.126;11.594;2022-08-03T13:01:52;1.87;;;1.40;;
7444;SDS011;3764;48.126;11.594;2022-08-03T13:04:25;2.30;;;1.50;;
7444;SDS011;3764;48.126;11.594;2022-08-03T13:06:57;1.87;;;1.57;;
7444;SDS011;3764;48.126;11.594;2022-08-03T13:09:25;4.07;;;1.10;;
7444;SDS011;3764;48.126;11.594;2022-08-03T13:12:06;2.07;;;1.30;;
7444;SDS011;3764;48.126;11.594;2022-08-03T13:14:34;3.28;;;1.50;;
7444;SDS011;3764;48.126;11.594;2022-08-03T13:17:02;1.80;;;1.30;;
7444;SDS011;3764;48.126;11.594;2022-08-03T13:19:31;1.90;;;1.40;;
7444;SDS011;3764;48.126;11.594;2022-08-03T13:21:59;1.80;;;1.53;;
7444;SDS011;3764;48.126;11.594;2022-08-03T13:24:27;2.30;;;1.97;;
7444;SDS011;3764;48.126;11.594;2022-08-03T13:26:55;1.80;;;1.43;;
7444;SDS011;3764;48.126;11.594;2022-08-03T13:29:22;1.80;;;1.40;;
7444;SDS011;3764;48.126;11.594;2022-08-03T13:31:49;1.90;;;1.40;;
7444;SDS011;3764;48.126;11.594;2022-08-03T13:34:16;2.33;;;1.57;;
7444;SDS011;3764;48.126;11.594;2022-08-03T13:36:45;1.80;;;1.33;;
7444;SDS011;3764;48.126;11.594;2022-08-03T13:39:12;1.70;;;1.47;;
7444;SDS011;3764;48.126;11.594;2022-08-03T13:41:40;2.40;;;1.50;;
7444;SDS011;3764;48.126;11.594;2022-08-03T13:44:07;5.77;;;2.03;;
7444;SDS011;3764;48.126;11.594;2022-08-03T13:46:34;2.80;;;1.53;;
7444;SDS011;3764;48.126;11.594;2022-08-03T13:49:01;1.80;;;1.50;;
7444;SDS011;3764;48.126;11.594;2022-08-03T13:51:29;1.90;;;1.63;;
7444;SDS011;3764;48.126;11.594;2022-08-03T13:53:57;1.80;;;1.43;;
7444;SDS011;3764;48.126;11.594;2022-08-03T13:56:24;2.00;;;1.80;;
7444;SDS011;3764;48.126;11.594;2022-08-03T13:58:52;2.17;;;1.60;;
7444;SDS011;3764;48.126;11.594;2022-08-03T14:01:19;6.10;;;2.27;;
7444;SDS011;3764;48.126;11.594;2022-08-03T14:03:46;4.30;;;2.60;;
7444;SDS011;3764;48.126;11.594;2022-08-03T14:06:16;2.10;;;1.60;;
7444;SDS011;3764;48.126;11.594;2022-08-03T14:08:44;2.00;;;1.70;;
7444;SDS011;3764;48.126;11.594;2022-08-03T14:11:13;2.20;;;1.50;;
7444;SDS011;3764;48.126;11.594;2022-08-03T14:13:41;2.43;;;1.90;;
7444;SDS011;3764;48.126;11.594;2022-08-03T14:16:09;3.03;;;1.57;;
7444;SDS011;3764;48.126;11.594;2022-08-03T14:18:36;2.00;;;1.57;;
7444;SDS011;3764;48.126;11.594;2022-08-03T14:21:04;2.70;;;1.60;;
7444;SDS011;3764;48.126;11.594;2022-08-03T14:23:31;7.03;;;1.70;;
7444;SDS011;3764;48.126;11.594;2022-08-03T14:25:59;1.97;;;1.50;;
7444;SDS011;3764;48.126;11.594;2022-08-03T14:28:27;2.33;;;1.23;;
7444;SDS011;3764;48.126;11.594;2022-08-03T14:30:55;2.23;;;1.37;;
7444;SDS011;3764;48.126;11.594;2022-08-03T14:33:22;3.93;;;2.70;;
7444;SDS011;3764;48.126;11.594;2022-08-03T14:35:50;3.10;;;1.97;;
7444;SDS011;3764;48.126;11.594;2022-08-03T14:38:17;2.20;;;1.93;;
7444;SDS011;3764;48.126;11.594;2022-08-03T14:40:45;1.80;;;1.57;;
7444;SDS011;3764;48.126;11.594;2022-08-03T14:43:12;2.70;;;1.90;;
7444;SDS011;3764;48.126;11.594;2022-08-03T14:45:43;1.97;;;1.53;;
7444;SDS011;3764;48.126;11.594;2022-08-03T14:48:10;2.00;;;1.80;;
7444;SDS011;3764;48.126;11.594;2022-08-03T14:50:37;1.90;;;1.60;;
7444;SDS011;3764;48.126;11.594;2022-08-03T14:53:05;1.70;;;1.40;;
7444;SDS011;3764;48.126;11.594;2022-08-03T14:55:32;1.73;;;1.60;;
7444;SDS011;3764;48.126;11.594;2022-08-03T14:57:59;1.70;;;1.40;;
7444;SDS011;3764;48.126;11.594;2022-08-03T15:00:30;2.07;;;1.47;;
7444;SDS011;3764;48.126;11.594;2022-08-03T15:02:58;3.43;;;1.50;;
7444;SDS011;3764;48.126;11.594;2022-08-03T15:05:26;2.57;;;1.50;;
7444;SDS011;3764;48.126;11.594;2022-08-03T15:07:53;2.40;;;1.33;;
7444;SDS011;3764;48.126;11.594;2022-08-03T15:10:20;1.70;;;1.60;;
7444;SDS011;3764;48.126;11.594;2022-08-03T15:12:47;2.47;;;1.60;;
7444;SDS011;3764;48.126;11.594;2022-08-03T15:15:14;2.10;;;1.90;;
7444;SDS011;3764;48.126;11.594;2022-08-03T15:17:41;6.43;;;4.60;;
7444;SDS011;3764;48.126;11.594;2022-08-03T15:20:10;3.53;;;2.03;;
7444;SDS011;3764;48.126;11.594;2022-08-03T15:22:38;2.83;;;1.70;;
7444;SDS011;3764;48.126;11.594;2022-08-03T15:25:05;2.37;;;1.40;;
7444;SDS011;3764;48.126;11.594;2022-08-03T15:27:33;1.70;;;1.43;;
7444;SDS011;3764;48.126;11.594;2022-08-03T15:30:00;2.50;;;1.87;;
7444;SDS011;3764;48.126;11.594;2022-08-03T15:32:30;2.00;;;1.70;;